Time;durP1;ratioP1;P1;durP2;ratioP2;P2;SDS_P1;SDS_P2;PMS_P1;PMS_P2;Temp;Humidity;BMP_temperature;BMP_pressure;BME280_temperature;BME280_humidity;BME280_pressure;Samples;Min_cycle;Max_cycle;Signal;HPM_P1;HPM_P2
2021/11/23 00:01:48;;;;;;;1.77;1.52;;;17.00;60.60;;;;;;5052258;28;20709;-62
2021/11/23 00:04:13;;;;;;;2.75;1.48;;;16.90;60.60;;;;;;5052538;28;20171;-62
2021/11/23 00:06:39;;;;;;;2.08;1.48;;;16.90;60.60;;;;;;5051310;28;20178;-61
2021/11/23 00:09:04;;;;;;;1.92;1.70;;;16.90;60.60;;;;;;5052410;28;20163;-60
2021/11/23 00:11:30;;;;;;;1.83;1.38;;;16.90;60.60;;;;;;5052061;28;20565;-61
2021/11/23 00:13:56;;;;;;;1.85;1.67;;;16.90;60.60;;;;;;5051662;28;20261;-61
2021/11/23 00:16:21;;;;;;;2.00;1.45;;;16.90;60.60;;;;;;5052383;28;20189;-61
2021/11/23 00:18:47;;;;;;;1.95;1.55;;;16.80;60.60;;;;;;5051030;28;20525;-61
2021/11/23 00:21:13;;;;;;;2.60;1.63;;;16.80;60.60;;;;;;5052209;28;20179;-62
2021/11/23 00:23:38;;;;;;;1.58;1.48;;;16.90;60.60;;;;;;5051869;28;20536;-61
2021/11/23 00:26:05;;;;;;;2.00;1.58;;;16.80;60.40;;;;;;5051480;28;20747;-61
2021/11/23 00:28:30;;;;;;;3.60;1.92;;;16.80;60.50;;;;;;5051856;28;20175;-62
2021/11/23 00:30:56;;;;;;;1.52;1.40;;;16.80;60.30;;;;;;5051863;28;20189;-61
2021/11/23 00:33:21;;;;;;;1.75;1.48;;;16.80;60.40;;;;;;5051300;28;20225;-61
2021/11/23 00:35:47;;;;;;;2.20;1.58;;;16.80;60.40;;;;;;5051875;28;20199;-61
2021/11/23 00:38:12;;;;;;;1.70;1.60;;;16.80;60.40;;;;;;5051834;28;20243;-62
2021/11/23 00:40:38;;;;;;;2.22;1.58;;;16.80;60.50;;;;;;5050881;28;20244;-61
2021/11/23 00:43:04;;;;;;;2.05;1.85;;;16.80;60.40;;;;;;5051934;28;20175;-60
2021/11/23 00:45:31;;;;;;;2.70;1.63;;;16.70;60.40;;;;;;5051320;28;20219;-61
2021/11/23 00:47:56;;;;;;;1.95;1.75;;;16.70;60.30;;;;;;5050907;28;20258;-60
2021/11/23 00:50:22;;;;;;;1.50;1.40;;;16.70;60.30;;;;;;5051884;28;20168;-61
2021/11/23 00:52:47;;;;;;;1.83;1.48;;;16.70;60.30;;;;;;5051073;28;20562;-61
2021/11/23 00:55:13;;;;;;;2.72;1.67;;;16.70;60.30;;;;;;5051099;28;20277;-62
2021/11/23 00:57:39;;;;;;;1.70;1.60;;;16.70;60.40;;;;;;5051418;28;20179;-62
2021/11/23 01:00:06;;;;;;;2.45;1.70;;;16.70;60.40;;;;;;5051582;28;20289;-62
2021/11/23 01:02:31;;;;;;;2.03;1.52;;;16.70;60.50;;;;;;5050644;28;20376;-61
2021/11/23 01:04:57;;;;;;;2.10;1.40;;;16.70;60.50;;;;;;5051245;28;20313;-61
2021/11/23 01:07:22;;;;;;;1.30;1.20;;;16.70;60.50;;;;;;5051401;28;20171;-60
2021/11/23 01:09:48;;;;;;;1.52;1.42;;;16.60;60.40;;;;;;5050745;28;20178;-60
2021/11/23 01:12:13;;;;;;;2.10;1.42;;;16.60;60.40;;;;;;5051636;28;20669;-61
2021/11/23 01:14:39;;;;;;;2.45;1.45;;;16.60;60.50;;;;;;5051139;28;20183;-62
2021/11/23 01:17:04;;;;;;;2.10;1.60;;;16.60;60.50;;;;;;5051004;28;20591;-61
2021/11/23 01:19:30;;;;;;;2.35;1.65;;;16.60;60.50;;;;;;5051108;28;20262;-61
2021/11/23 01:21:55;;;;;;;1.95;1.50;;;16.60;60.50;;;;;;5051300;28;20537;-61
2021/11/23 01:24:21;;;;;;;1.50;1.40;;;16.60;60.50;;;;;;5050891;28;20175;-61
2021/11/23 01:26:47;;;;;;;1.67;1.30;;;16.60;60.50;;;;;;5051334;28;20178;-62
2021/11/23 01:29:12;;;;;;;1.30;1.20;;;16.60;60.50;;;;;;5050772;28;20274;-60
2021/11/23 01:31:38;;;;;;;2.28;1.58;;;16.60;60.50;;;;;;5050682;28;20558;-62
2021/11/23 01:34:04;;;;;;;1.63;1.50;;;16.60;60.50;;;;;;5051235;28;20176;-62
2021/11/23 01:36:29;;;;;;;1.98;1.30;;;16.60;60.50;;;;;;5050070;28;20537;-61
2021/11/23 01:38:55;;;;;;;2.00;1.80;;;16.60;60.50;;;;;;5051705;28;20178;-61
2021/11/23 01:41:22;;;;;;;1.33;1.15;;;16.60;60.50;;;;;;5051455;28;20171;-61
2021/11/23 01:43:48;;;;;;;1.45;1.35;;;16.60;60.50;;;;;;5050112;28;20213;-61
2021/11/23 01:46:13;;;;;;;1.63;1.50;;;16.60;60.50;;;;;;5051043;28;20689;-61
2021/11/23 01:48:39;;;;;;;2.28;1.65;;;16.50;60.50;;;;;;5050829;28;20175;-61
2021/11/23 01:51:05;;;;;;;1.70;1.42;;;16.50;60.50;;;;;;5050239;28;20171;-61
2021/11/23 01:53:31;;;;;;;1.42;1.33;;;16.50;60.50;;;;;;5051059;28;20222;-61
2021/11/23 01:55:56;;;;;;;1.42;1.33;;;16.50;60.50;;;;;;5051017;28;20267;-63
2021/11/23 01:58:22;;;;;;;1.92;1.70;;;16.50;60.50;;;;;;5050411;28;20179;-62
2021/11/23 02:00:47;;;;;;;1.70;1.60;;;16.50;60.50;;;;;;5050710;28;20645;-61
2021/11/23 02:03:13;;;;;;;1.73;1.30;;;16.50;60.50;;;;;;5050864;28;20172;-61
2021/11/23 02:05:39;;;;;;;1.90;1.75;;;16.50;60.50;;;;;;5050037;28;20246;-60
2021/11/23 02:08:04;;;;;;;3.40;1.70;;;16.50;60.50;;;;;;5051134;28;20179;-61
2021/11/23 02:10:30;;;;;;;1.63;1.35;;;16.50;60.50;;;;;;5050745;28;20229;-60
2021/11/23 02:12:55;;;;;;;1.38;1.27;;;16.50;60.50;;;;;;5050228;28;20710;-61
2021/11/23 02:15:21;;;;;;;1.50;1.23;;;16.50;60.50;;;;;;5049712;28;20163;-61
2021/11/23 02:17:47;;;;;;;2.58;1.60;;;16.50;60.50;;;;;;5052560;28;20555;-60
2021/11/23 02:20:20;;;;;;;1.98;1.40;;;16.50;60.50;;;;;;5053568;28;20618;-61
2021/11/23 02:22:46;;;;;;;1.85;1.70;;;16.40;60.50;;;;;;5054275;28;20198;-61
2021/11/23 02:25:11;;;;;;;1.48;1.35;;;16.50;60.60;;;;;;5054545;28;20171;-60
2021/11/23 02:27:37;;;;;;;2.13;1.38;;;16.40;60.50;;;;;;5053054;28;20267;-61
2021/11/23 02:30:06;;;;;;;1.75;1.20;;;16.40;60.50;;;;;;5054430;28;20703;-61
2021/11/23 02:32:43;;;;;;;1.50;1.30;;;16.40;60.50;;;;;;5053054;28;20210;-60
2021/11/23 02:35:10;;;;;;;1.83;1.30;;;16.40;60.60;;;;;;5054274;28;20175;-61
2021/11/23 02:37:49;;;;;;;1.50;1.40;;;16.40;60.50;;;;;;5054170;28;20509;-60
2021/11/23 02:40:15;;;;;;;2.13;1.63;;;16.40;60.50;;;;;;5053294;28;20547;-62
2021/11/23 02:42:40;;;;;;;1.42;1.33;;;16.40;60.50;;;;;;5053715;28;20677;-61
2021/11/23 02:45:06;;;;;;;1.27;1.17;;;16.40;60.50;;;;;;5053727;28;20167;-61
2021/11/23 02:47:36;;;;;;;1.92;1.30;;;16.40;60.50;;;;;;5053171;28;20171;-61
2021/11/23 02:50:02;;;;;;;1.88;1.35;;;16.40;60.50;;;;;;5054275;28;20167;-61
2021/11/23 02:52:28;;;;;;;2.17;1.23;;;16.40;60.50;;;;;;5053808;28;20211;-61
2021/11/23 02:54:58;;;;;;;1.40;1.30;;;16.40;60.50;;;;;;5053287;28;20191;-61
2021/11/23 02:57:27;;;;;;;1.75;1.40;;;16.40;60.50;;;;;;5053910;28;20218;-62
2021/11/23 02:59:52;;;;;;;1.80;1.40;;;16.30;60.50;;;;;;5053360;28;20185;-62
2021/11/23 03:02:18;;;;;;;1.40;1.30;;;16.30;60.50;;;;;;5053224;28;20171;-62
2021/11/23 03:04:52;;;;;;;1.92;1.40;;;16.30;60.50;;;;;;5053548;28;20195;-61
2021/11/23 03:07:18;;;;;;;1.52;1.20;;;16.30;60.50;;;;;;5053793;28;20175;-61
2021/11/23 03:09:43;;;;;;;1.50;1.40;;;16.30;60.50;;;;;;5052624;28;20542;-61
2021/11/23 03:12:20;;;;;;;1.55;1.20;;;16.40;60.60;;;;;;5053390;28;20221;-61
2021/11/23 03:14:46;;;;;;;1.83;1.40;;;16.30;60.50;;;;;;5052736;28;20254;-61
2021/11/23 03:17:12;;;;;;;2.60;1.30;;;16.30;60.60;;;;;;5053627;28;20236;-61
2021/11/23 03:19:38;;;;;;;2.22;1.80;;;16.30;60.60;;;;;;5053160;28;20172;-60
2021/11/23 03:22:03;;;;;;;1.58;1.35;;;16.30;60.50;;;;;;5052899;28;20178;-61
2021/11/23 03:24:29;;;;;;;1.30;1.20;;;16.30;60.50;;;;;;5053152;28;20581;-60
2021/11/23 03:26:55;;;;;;;2.33;1.52;;;16.30;60.50;;;;;;5053269;28;20203;-61
2021/11/23 03:29:21;;;;;;;1.92;1.30;;;16.30;60.60;;;;;;5052282;28;20283;-61
2021/11/23 03:31:46;;;;;;;1.65;1.45;;;16.30;60.60;;;;;;5052853;28;20210;-61
2021/11/23 03:34:14;;;;;;;1.50;1.25;;;16.30;60.60;;;;;;5053101;28;20186;-62
2021/11/23 03:36:40;;;;;;;1.48;1.27;;;16.20;60.50;;;;;;5052059;28;20240;-62
2021/11/23 03:39:08;;;;;;;1.52;1.20;;;16.30;60.60;;;;;;5053071;28;20220;-62
2021/11/23 03:41:34;;;;;;;1.67;1.48;;;16.20;60.50;;;;;;5052660;28;20175;-62
2021/11/23 03:43:59;;;;;;;2.08;1.40;;;16.30;60.60;;;;;;5052295;28;20187;-62
2021/11/23 03:46:25;;;;;;;1.38;1.27;;;16.20;60.60;;;;;;5052837;28;20249;-62
2021/11/23 03:48:52;;;;;;;1.60;1.50;;;16.20;60.50;;;;;;5052638;28;20213;-61
2021/11/23 03:51:18;;;;;;;3.08;1.35;;;16.20;60.50;;;;;;5052029;28;20207;-63
2021/11/23 03:53:44;;;;;;;1.50;1.40;;;16.20;60.50;;;;;;5052406;28;20209;-63
2021/11/23 03:56:10;;;;;;;1.23;1.13;;;16.20;60.50;;;;;;5052584;28;20202;-63
2021/11/23 03:58:35;;;;;;;1.35;1.15;;;16.20;60.50;;;;;;5051901;28;20649;-63
2021/11/23 04:01:01;;;;;;;1.38;1.20;;;16.20;60.50;;;;;;5052739;28;20175;-63
2021/11/23 04:03:26;;;;;;;1.42;1.33;;;16.20;61.40;;;;;;5052677;28;20631;-62
2021/11/23 04:05:52;;;;;;;1.45;1.35;;;16.20;60.50;;;;;;5051480;28;20546;-62
2021/11/23 04:08:20;;;;;;;1.30;1.20;;;16.20;60.50;;;;;;5052684;28;20657;-62
2021/11/23 04:10:45;;;;;;;1.52;1.42;;;16.20;60.60;;;;;;5052219;28;20179;-62
2021/11/23 04:13:11;;;;;;;1.35;1.25;;;16.10;60.50;;;;;;5051833;28;20665;-62
2021/11/23 04:15:36;;;;;;;1.58;1.13;;;16.20;60.60;;;;;;5052315;28;20198;-62
2021/11/23 04:18:02;;;;;;;1.65;1.38;;;16.10;60.50;;;;;;5051662;28;20190;-61
2021/11/23 04:20:27;;;;;;;1.38;1.27;;;16.10;60.50;;;;;;5052406;28;20249;-61
2021/11/23 04:22:53;;;;;;;1.98;1.50;;;16.10;60.50;;;;;;5051880;28;20240;-61
2021/11/23 04:25:18;;;;;;;1.60;1.38;;;16.10;60.50;;;;;;5051397;28;20714;-61
2021/11/23 04:27:44;;;;;;;1.30;1.20;;;16.10;61.40;;;;;;5052123;28;20175;-62
2021/11/23 04:30:11;;;;;;;1.38;1.27;;;16.10;60.50;;;;;;5052161;28;20194;-62
2021/11/23 04:32:36;;;;;;;1.60;1.50;;;16.10;60.50;;;;;;5051077;28;20218;-61
2021/11/23 04:35:02;;;;;;;1.95;1.30;;;16.10;60.40;;;;;;5052067;28;20305;-61
2021/11/23 04:37:28;;;;;;;1.50;1.30;;;16.10;60.50;;;;;;5051821;28;20626;-61
2021/11/23 04:39:53;;;;;;;1.23;1.20;;;16.10;60.50;;;;;;5050341;28;20171;-62
2021/11/23 04:42:19;;;;;;;1.98;1.35;;;16.10;60.50;;;;;;5051948;28;20187;-62
2021/11/23 04:44:44;;;;;;;1.42;1.23;;;16.10;60.50;;;;;;5051658;28;20167;-61
2021/11/23 04:47:10;;;;;;;1.33;1.27;;;16.10;60.50;;;;;;5051251;28;20300;-61
2021/11/23 04:49:35;;;;;;;1.13;1.10;;;16.00;60.50;;;;;;5051678;28;20171;-61
2021/11/23 04:52:01;;;;;;;1.63;1.52;;;16.00;60.50;;;;;;5051692;28;20211;-62
2021/11/23 04:54:26;;;;;;;1.40;1.30;;;16.00;60.50;;;;;;5051030;28;20634;-63
2021/11/23 04:56:52;;;;;;;1.27;1.17;;;16.00;60.40;;;;;;5051594;28;20232;-63
2021/11/23 04:59:17;;;;;;;1.55;1.45;;;16.00;60.50;;;;;;5051877;28;20612;-63
2021/11/23 05:01:43;;;;;;;1.50;1.35;;;16.00;60.50;;;;;;5050738;28;20175;-62
2021/11/23 05:04:08;;;;;;;1.52;1.42;;;16.10;60.60;;;;;;5051715;28;20535;-62
2021/11/23 05:06:37;;;;;;;1.48;1.15;;;16.00;60.50;;;;;;5051383;28;20218;-62
2021/11/23 05:09:03;;;;;;;1.63;1.52;;;16.10;60.60;;;;;;5050869;28;20186;-62
2021/11/23 05:11:34;;;;;;;1.95;1.42;;;16.00;60.50;;;;;;5051766;28;20560;-62
2021/11/23 05:13:59;;;;;;;1.40;1.30;;;16.00;60.50;;;;;;5052135;28;20179;-63
2021/11/23 05:16:25;;;;;;;1.75;1.30;;;16.00;60.50;;;;;;5050760;28;20640;-63
2021/11/23 05:18:50;;;;;;;2.28;1.58;;;16.00;60.60;;;;;;5051437;28;20175;-62
2021/11/23 05:21:16;;;;;;;2.00;1.40;;;16.00;60.50;;;;;;5050841;28;20178;-63
2021/11/23 05:23:41;;;;;;;1.35;1.25;;;16.00;60.60;;;;;;5051162;28;20175;-63
2021/11/23 05:26:07;;;;;;;1.33;1.23;;;16.00;60.50;;;;;;5051818;28;20169;-62
2021/11/23 05:28:32;;;;;;;1.25;1.13;;;16.00;60.60;;;;;;5050441;28;20182;-62
2021/11/23 05:30:58;;;;;;;1.40;1.30;;;16.00;60.60;;;;;;5051487;28;20167;-62
2021/11/23 05:33:23;;;;;;;1.88;1.58;;;16.00;60.60;;;;;;5051509;28;20572;-62
2021/11/23 05:35:52;;;;;;;1.33;1.23;;;16.00;60.60;;;;;;5050287;28;20610;-61
2021/11/23 05:38:18;;;;;;;1.38;1.27;;;16.00;60.60;;;;;;5051427;28;20183;-62
2021/11/23 05:40:44;;;;;;;1.45;1.33;;;15.90;60.50;;;;;;5051148;28;20175;-61
2021/11/23 05:43:11;;;;;;;1.63;1.48;;;16.00;60.60;;;;;;5050624;28;20237;-61
2021/11/23 05:45:36;;;;;;;1.38;1.27;;;15.90;60.50;;;;;;5051053;28;20292;-61
2021/11/23 05:48:02;;;;;;;1.48;1.27;;;15.90;60.50;;;;;;5051424;28;20175;-62
2021/11/23 05:50:27;;;;;;;1.83;1.40;;;15.90;60.50;;;;;;5050515;28;20229;-61
2021/11/23 05:52:53;;;;;;;1.60;1.45;;;15.90;60.60;;;;;;5054545;28;20614;-61
2021/11/23 05:55:18;;;;;;;1.48;1.38;;;15.90;60.60;;;;;;5055116;28;20182;-62
2021/11/23 05:57:43;;;;;;;1.40;1.30;;;15.90;60.50;;;;;;5054241;28;20254;-62
2021/11/23 06:00:10;;;;;;;1.40;1.30;;;15.90;60.50;;;;;;5054985;28;20595;-63
2021/11/23 06:02:35;;;;;;;1.30;1.20;;;15.90;60.50;;;;;;5054588;28;20171;-61
2021/11/23 06:05:02;;;;;;;1.70;1.60;;;15.90;60.60;;;;;;5054183;28;20175;-61
2021/11/23 06:07:28;;;;;;;1.65;1.30;;;15.90;60.60;;;;;;5054624;28;20174;-61
2021/11/23 06:09:54;;;;;;;1.60;1.50;;;15.90;60.60;;;;;;5054933;28;20578;-62
2021/11/23 06:12:19;;;;;;;1.70;1.60;;;15.90;60.60;;;;;;5053980;28;20214;-62
2021/11/23 06:14:45;;;;;;;2.15;1.40;;;15.90;60.60;;;;;;5054492;28;20674;-62
2021/11/23 06:17:11;;;;;;;2.35;1.60;;;15.90;60.60;;;;;;5054881;28;20175;-62
2021/11/23 06:19:37;;;;;;;1.85;1.45;;;15.90;60.60;;;;;;5053630;28;20179;-62
2021/11/23 06:22:03;;;;;;;1.45;1.35;;;15.90;60.60;;;;;;5054336;28;20171;-62
2021/11/23 06:24:29;;;;;;;1.80;1.30;;;15.80;60.50;;;;;;5053675;28;20186;-61
2021/11/23 06:26:54;;;;;;;1.77;1.40;;;15.80;60.50;;;;;;5054284;28;20187;-61
2021/11/23 06:29:20;;;;;;;1.67;1.40;;;15.80;60.50;;;;;;5053045;28;20634;-62
2021/11/23 06:31:45;;;;;;;1.75;1.40;;;15.80;60.50;;;;;;5053325;28;20207;-61
2021/11/23 06:34:11;;;;;;;1.40;1.30;;;15.80;60.50;;;;;;5054180;28;20221;-62
2021/11/23 06:36:36;;;;;;;2.13;1.45;;;15.80;60.60;;;;;;5053923;28;20179;-61
2021/11/23 06:39:03;;;;;;;2.35;1.80;;;15.80;60.60;;;;;;5053590;28;20641;-60
2021/11/23 06:41:28;;;;;;;1.65;1.50;;;15.80;60.60;;;;;;5053766;28;20195;-61
2021/11/23 06:43:55;;;;;;;1.58;1.48;;;15.80;60.60;;;;;;5054210;28;20210;-61
2021/11/23 06:46:20;;;;;;;2.00;1.60;;;15.80;60.60;;;;;;5053142;28;20219;-62
2021/11/23 06:48:46;;;;;;;1.40;1.30;;;15.80;60.60;;;;;;5053579;28;20186;-61
2021/11/23 06:51:12;;;;;;;1.13;1.10;;;15.80;60.60;;;;;;5053873;28;20262;-61
2021/11/23 06:53:37;;;;;;;1.65;1.42;;;15.80;60.60;;;;;;5053147;28;20202;-63
2021/11/23 06:56:03;;;;;;;1.42;1.33;;;15.80;60.60;;;;;;5054043;28;20802;-63
2021/11/23 06:58:28;;;;;;;1.65;1.30;;;15.80;60.60;;;;;;5053860;28;20179;-62
2021/11/23 07:00:54;;;;;;;1.30;1.20;;;15.80;60.70;;;;;;5053200;28;20178;-62
2021/11/23 07:03:19;;;;;;;1.67;1.58;;;15.80;60.60;;;;;;5053120;28;20259;-61
2021/11/23 07:05:45;;;;;;;1.40;1.30;;;15.80;60.60;;;;;;5053291;28;20179;-61
2021/11/23 07:08:10;;;;;;;2.63;1.25;;;15.80;60.80;;;;;;5053107;28;20720;-61
2021/11/23 07:10:36;;;;;;;1.45;1.35;;;15.90;60.90;;;;;;5053332;28;20183;-61
2021/11/23 07:13:02;;;;;;;1.50;1.40;;;16.00;60.80;;;;;;5053452;28;20219;-62
2021/11/23 07:15:27;;;;;;;1.42;1.33;;;16.00;60.60;;;;;;5052820;28;20202;-62
2021/11/23 07:17:53;;;;;;;1.42;1.33;;;16.00;60.60;;;;;;5053219;28;20171;-62
2021/11/23 07:20:18;;;;;;;1.35;1.25;;;16.10;60.40;;;;;;5053408;28;20176;-61
2021/11/23 07:22:44;;;;;;;1.48;1.38;;;16.30;60.40;;;;;;5052602;28;20268;-61
2021/11/23 07:25:09;;;;;;;1.45;1.33;;;16.40;59.90;;;;;;5053518;28;20176;-62
2021/11/23 07:27:35;;;;;;;1.40;1.30;;;16.60;59.70;;;;;;5053023;28;20175;-62
2021/11/23 07:30:00;;;;;;;1.65;1.55;;;16.80;59.50;;;;;;5052580;28;20171;-62
2021/11/23 07:32:26;;;;;;;1.33;1.00;;;17.00;59.20;;;;;;5053238;28;20213;-62
2021/11/23 07:34:51;;;;;;;2.88;1.55;;;17.30;59.00;;;;;;5052390;28;20174;-64
2021/11/23 07:37:17;;;;;;;2.80;1.30;;;17.50;58.50;;;;;;5053416;28;20175;-64
2021/11/23 07:39:43;;;;;;;3.10;1.85;;;17.80;58.20;;;;;;5052786;28;20171;-64
2021/11/23 07:42:08;;;;;;;2.97;1.70;;;18.00;57.90;;;;;;5052372;28;20885;-67
2021/11/23 07:44:34;;;;;;;2.53;1.50;;;18.10;57.70;;;;;;5052727;28;20171;-67
2021/11/23 07:46:59;;;;;;;1.92;1.50;;;18.40;57.20;;;;;;5053078;28;20660;-67
2021/11/23 07:49:25;;;;;;;4.80;1.60;;;18.50;57.00;;;;;;5052371;28;20537;-66
2021/11/23 07:51:51;;;;;;;2.72;1.60;;;18.60;57.00;;;;;;5052961;28;20257;-69
2021/11/23 07:54:16;;;;;;;2.28;1.58;;;18.70;56.70;;;;;;5053150;28;20167;-67
2021/11/23 07:56:42;;;;;;;2.35;1.48;;;18.80;56.60;;;;;;5052112;28;20254;-67
2021/11/23 07:59:08;;;;;;;3.33;1.50;;;18.80;56.70;;;;;;5052949;28;20622;-67
2021/11/23 08:01:34;;;;;;;2.53;1.67;;;18.90;56.70;;;;;;5052678;28;20186;-71
2021/11/23 08:03:59;;;;;;;3.33;1.52;;;18.90;56.80;;;;;;5051793;28;20182;-66
2021/11/23 08:06:25;;;;;;;2.25;1.48;;;18.80;56.90;;;;;;5052677;28;20186;-68
2021/11/23 08:08:50;;;;;;;1.73;1.35;;;18.80;57.10;;;;;;5052535;28;20205;-68
2021/11/23 08:11:16;;;;;;;3.05;1.60;;;18.80;57.20;;;;;;5051948;28;20606;-67
2021/11/23 08:13:41;;;;;;;2.47;1.55;;;18.80;57.30;;;;;;5052458;28;20183;-67
2021/11/23 08:16:07;;;;;;;2.45;1.60;;;18.70;57.40;;;;;;5052050;28;20178;-67
2021/11/23 08:18:33;;;;;;;2.42;1.70;;;18.70;57.40;;;;;;5051452;28;20179;-67
2021/11/23 08:20:59;;;;;;;2.60;1.58;;;18.70;57.40;;;;;;5052792;28;20175;-67
2021/11/23 08:23:24;;;;;;;4.20;1.50;;;18.70;57.50;;;;;;5052564;28;20175;-67
2021/11/23 08:25:50;;;;;;;2.75;1.45;;;18.70;57.40;;;;;;5051333;28;20179;-68
2021/11/23 08:28:18;;;;;;;3.85;1.42;;;18.70;57.40;;;;;;5052504;28;20171;-68
2021/11/23 08:30:46;;;;;;;2.00;1.48;;;18.70;57.40;;;;;;5051939;28;20183;-69
2021/11/23 08:33:11;;;;;;;3.35;1.38;;;18.80;57.40;;;;;;5051377;28;20211;-68
2021/11/23 08:35:36;;;;;;;5.45;1.77;;;18.70;57.40;;;;;;5052102;28;20182;-69
2021/11/23 08:38:02;;;;;;;4.28;1.65;;;18.70;57.40;;;;;;5052089;28;20190;-68
2021/11/23 08:40:28;;;;;;;1.75;1.48;;;18.70;57.40;;;;;;5051549;28;20171;-69
2021/11/23 08:42:53;;;;;;;1.73;1.50;;;18.80;57.40;;;;;;5051878;28;20232;-67
2021/11/23 08:45:19;;;;;;;1.85;1.60;;;18.70;57.30;;;;;;5050791;28;20219;-69
2021/11/23 08:47:44;;;;;;;2.20;1.35;;;18.80;57.30;;;;;;5051848;28;20193;-67
2021/11/23 08:50:10;;;;;;;2.97;1.45;;;18.80;57.30;;;;;;5052162;28;20171;-68
2021/11/23 08:52:36;;;;;;;2.17;1.52;;;18.80;57.30;;;;;;5050546;28;20225;-67
2021/11/23 08:55:03;;;;;;;1.58;1.30;;;18.80;57.30;;;;;;5052096;28;20175;-68
2021/11/23 08:57:28;;;;;;;2.38;1.30;;;18.70;57.40;;;;;;5051326;28;20183;-68
2021/11/23 09:00:08;;;;;;;2.30;1.30;;;18.70;57.60;;;;;;5051285;28;20208;-69
2021/11/23 09:02:34;;;;;;;2.00;1.48;;;18.50;57.70;;;;;;5051507;28;20253;-68
2021/11/23 09:05:00;;;;;;;1.35;1.25;;;18.40;57.90;;;;;;5051929;28;20640;-68
2021/11/23 09:07:26;;;;;;;1.95;1.33;;;18.30;58.20;;;;;;5051277;28;20624;-68
2021/11/23 09:09:51;;;;;;;3.15;1.52;;;18.30;58.20;;;;;;5051495;28;20175;-67
2021/11/23 09:12:18;;;;;;;1.48;1.20;;;18.30;58.20;;;;;;5051701;28;20229;-66
2021/11/23 09:14:43;;;;;;;1.90;1.25;;;18.30;58.20;;;;;;5050741;28;20202;-68
2021/11/23 09:17:09;;;;;;;2.45;1.38;;;18.30;58.20;;;;;;5051978;28;20239;-67
2021/11/23 09:19:34;;;;;;;1.98;1.30;;;18.40;58.20;;;;;;5051662;28;20646;-67
2021/11/23 09:22:00;;;;;;;2.08;1.48;;;18.40;58.10;;;;;;5051177;28;20171;-67
2021/11/23 09:24:26;;;;;;;1.92;1.40;;;18.50;58.00;;;;;;5051489;28;20254;-66
2021/11/23 09:26:51;;;;;;;2.20;1.40;;;18.50;57.90;;;;;;5053652;28;20332;-68
2021/11/23 09:29:20;;;;;;;1.60;1.30;;;18.50;57.80;;;;;;5054802;28;20173;-68
2021/11/23 09:31:46;;;;;;;1.95;1.20;;;18.60;57.80;;;;;;5055457;28;20237;-69
2021/11/23 09:34:12;;;;;;;1.52;1.00;;;18.60;57.60;;;;;;5055827;28;20610;-68
2021/11/23 09:36:38;;;;;;;2.58;1.05;;;18.70;57.60;;;;;;5054644;28;20183;-71
2021/11/23 09:39:04;;;;;;;2.03;1.13;;;18.70;57.60;;;;;;5055678;28;20175;-69
2021/11/23 09:41:33;;;;;;;1.50;1.10;;;18.70;57.60;;;;;;5054622;28;20175;-69
2021/11/23 09:43:58;;;;;;;2.25;1.70;;;18.60;57.70;;;;;;5055321;28;20202;-69
2021/11/23 09:46:24;;;;;;;1.48;1.33;;;18.50;57.90;;;;;;5055379;28;20238;-68
2021/11/23 09:48:49;;;;;;;2.35;1.45;;;18.40;58.10;;;;;;5054522;28;20270;-68
2021/11/23 09:51:19;;;;;;;3.35;1.40;;;18.30;58.80;;;;;;5055366;28;20542;-67
2021/11/23 09:53:44;;;;;;;1.02;0.93;;;18.30;58.40;;;;;;5054940;28;20182;-67
2021/11/23 09:56:10;;;;;;;3.03;1.63;;;18.30;58.40;;;;;;5054395;28;20171;-66
2021/11/23 09:58:36;;;;;;;1.48;1.35;;;18.30;58.40;;;;;;5054850;28;20179;-66
2021/11/23 10:01:06;;;;;;;3.03;1.23;;;18.30;58.40;;;;;;5054757;28;20171;-65
2021/11/23 10:03:33;;;;;;;1.23;1.13;;;18.40;58.50;;;;;;5054128;28;20175;-67
2021/11/23 10:06:12;;;;;;;1.67;1.10;;;18.40;58.50;;;;;;5054946;28;20179;-66
2021/11/23 10:08:40;;;;;;;1.60;1.23;;;18.50;58.40;;;;;;5054601;28;20179;-65
2021/11/23 10:11:06;;;;;;;1.17;1.08;;;18.60;58.40;;;;;;5054109;28;20175;-66
2021/11/23 10:14:02;;;;;;;1.02;0.90;;;18.50;58.30;;;;;;5054571;28;20218;-66
2021/11/23 10:16:45;;;;;;;1.30;1.10;;;18.50;58.50;;;;;;5054011;28;20210;-65
2021/11/23 10:19:11;;;;;;;2.15;1.30;;;18.40;58.60;;;;;;5054686;28;20278;-65
2021/11/23 10:21:51;;;;;;;2.45;0.80;;;18.40;58.90;;;;;;5056250;28;20182;-66
2021/11/23 10:24:17;;;;;;;1.80;1.20;;;18.30;59.00;;;;;;5058301;28;20182;-64
2021/11/23 10:26:44;;;;;;;1.15;0.93;;;18.30;59.00;;;;;;5072347;28;20186;-66
2021/11/23 10:29:09;;;;;;;3.50;1.55;;;18.30;59.00;;;;;;5071355;28;20513;-64
2021/11/23 10:31:42;;;;;;;2.00;1.00;;;18.40;59.00;;;;;;5053571;28;20214;-67
2021/11/23 10:34:12;;;;;;;1.23;1.15;;;18.40;59.00;;;;;;5054423;28;20183;-67
2021/11/23 10:36:41;;;;;;;2.67;0.98;;;18.50;58.90;;;;;;5054441;28;20155;-67
2021/11/23 10:39:09;;;;;;;0.93;0.93;;;18.50;58.80;;;;;;5067193;28;20182;-66
2021/11/23 10:41:34;;;;;;;1.55;1.17;;;18.50;58.80;;;;;;5057344;28;20207;-66
2021/11/23 10:44:00;;;;;;;1.50;1.02;;;18.40;58.80;;;;;;5054324;28;20202;-66
2021/11/23 10:46:28;;;;;;;1.13;1.02;;;18.40;58.90;;;;;;5053248;28;20239;-66
2021/11/23 10:48:58;;;;;;;1.50;1.08;;;18.30;58.90;;;;;;5036779;28;20175;-66
2021/11/23 10:51:25;;;;;;;1.52;1.10;;;18.30;59.00;;;;;;5053835;28;20175;-65
2021/11/23 10:53:50;;;;;;;1.00;1.00;;;18.30;59.10;;;;;;5053201;28;20209;-67
2021/11/23 10:56:17;;;;;;;2.67;1.00;;;18.30;59.10;;;;;;5054126;28;20171;-65
2021/11/23 10:58:44;;;;;;;3.17;1.30;;;18.40;59.10;;;;;;5052935;28;20542;-65
2021/11/23 11:01:10;;;;;;;1.40;1.30;;;18.40;59.10;;;;;;5053265;28;20209;-63
2021/11/23 11:03:36;;;;;;;1.85;1.65;;;18.30;58.80;;;;;;5053872;28;20261;-64
2021/11/23 11:06:02;;;;;;;2.35;1.40;;;18.30;58.80;;;;;;5053299;28;20175;-63
2021/11/23 11:08:33;;;;;;;3.78;1.50;;;18.20;58.90;;;;;;5053907;28;20174;-68
2021/11/23 11:10:59;;;;;;;4.57;1.58;;;18.20;59.10;;;;;;5052772;28;20175;-65
2021/11/23 11:13:25;;;;;;;1.88;1.27;;;18.20;59.20;;;;;;5053177;28;20301;-64
2021/11/23 11:15:54;;;;;;;1.88;1.30;;;18.10;59.20;;;;;;5052424;28;20588;-65
2021/11/23 11:18:21;;;;;;;2.92;1.80;;;18.10;59.30;;;;;;5054251;28;20183;-65
2021/11/23 11:20:50;;;;;;;3.60;1.70;;;18.10;59.40;;;;;;5052942;28;20608;-65
2021/11/23 11:23:21;;;;;;;2.17;1.40;;;18.10;59.40;;;;;;5053749;28;20175;-62
2021/11/23 11:25:52;;;;;;;3.30;1.55;;;18.20;59.40;;;;;;5053264;28;20182;-65
2021/11/23 11:28:44;;;;;;;2.00;1.60;;;18.20;59.30;;;;;;5052973;28;20202;-65
2021/11/23 11:31:29;;;;;;;5.55;1.73;;;18.20;59.20;;;;;;5032520;28;20179;-64
2021/11/23 11:34:17;;;;;;;3.03;1.70;;;18.20;59.20;;;;;;5033403;28;20188;-66
2021/11/23 11:36:43;;;;;;;5.05;1.92;;;18.20;59.30;;;;;;5033675;28;20229;-66
2021/11/23 11:39:09;;;;;;;2.53;1.65;;;18.20;59.40;;;;;;5033776;28;20191;-65
2021/11/23 11:41:39;;;;;;;5.20;2.03;;;18.10;59.40;;;;;;5032705;28;20204;-66
2021/11/23 11:44:23;;;;;;;3.25;1.60;;;18.10;59.60;;;;;;5033857;28;20578;-65
2021/11/23 11:47:05;;;;;;;3.35;1.60;;;18.00;59.70;;;;;;5015472;28;20231;-65
2021/11/23 11:50:01;;;;;;;2.97;1.63;;;18.00;59.80;;;;;;5032458;28;20182;-66
2021/11/23 11:52:30;;;;;;;4.82;1.70;;;18.10;59.80;;;;;;5033554;28;20228;-65
2021/11/23 11:55:15;;;;;;;2.90;1.77;;;18.10;59.70;;;;;;5033276;28;20642;-66
2021/11/23 11:57:42;;;;;;;4.80;1.70;;;18.10;59.70;;;;;;5032772;28;20273;-65
2021/11/23 12:00:23;;;;;;;5.05;2.05;;;18.10;59.90;;;;;;5032837;28;20180;-65
2021/11/23 12:02:53;;;;;;;4.25;1.80;;;18.10;59.90;;;;;;5031784;28;20212;-68
2021/11/23 12:05:19;;;;;;;6.40;1.77;;;18.00;59.90;;;;;;5032816;28;20226;-63
2021/11/23 12:07:48;;;;;;;5.47;1.88;;;18.00;60.10;;;;;;5032823;28;20179;-64
2021/11/23 12:10:27;;;;;;;2.60;1.73;;;18.00;60.20;;;;;;5032159;28;20172;-63
2021/11/23 12:12:56;;;;;;;7.03;1.80;;;18.00;60.10;;;;;;5032346;28;20210;-65
2021/11/23 12:15:36;;;;;;;5.00;1.58;;;18.00;60.10;;;;;;5032557;28;20623;-66
2021/11/23 12:18:22;;;;;;;4.53;1.70;;;18.00;60.20;;;;;;5031726;28;20203;-65
2021/11/23 12:21:08;;;;;;;4.03;1.70;;;17.90;60.30;;;;;;5031120;28;20267;-64
2021/11/23 12:23:43;;;;;;;5.38;1.73;;;17.90;60.50;;;;;;5031524;28;20190;-63
2021/11/23 12:26:13;;;;;;;5.95;1.88;;;17.90;60.50;;;;;;5031148;28;20549;-64
2021/11/23 12:28:39;;;;;;;2.13;1.40;;;17.90;60.40;;;;;;5033816;28;20631;-65
2021/11/23 12:31:09;;;;;;;5.13;1.98;;;17.80;60.40;;;;;;5071508;28;20178;-66
2021/11/23 12:33:52;;;;;;;3.67;1.73;;;17.80;60.50;;;;;;5071985;28;20354;-68
2021/11/23 12:36:22;;;;;;;3.55;1.80;;;17.70;61.50;;;;;;5072435;28;20177;-65
2021/11/23 12:38:48;;;;;;;3.53;1.60;;;17.70;60.80;;;;;;5071022;28;20645;-67
2021/11/23 12:41:17;;;;;;;2.60;1.83;;;17.70;60.60;;;;;;5065864;28;20210;-65
2021/11/23 12:43:43;;;;;;;3.35;1.52;;;17.70;60.70;;;;;;5051657;28;20186;-67
2021/11/23 12:46:14;;;;;;;4.13;1.50;;;17.80;60.60;;;;;;5051295;28;20592;-68
2021/11/23 12:48:40;;;;;;;4.95;1.50;;;17.80;60.50;;;;;;5051777;28;20225;-65